Time;durP1;ratioP1;P1;durP2;ratioP2;P2;SDS_P1;SDS_P2;PMS_P1;PMS_P2;Temp;Humidity;BMP_temperature;BMP_pressure;BME280_temperature;BME280_humidity;BME280_pressure;Samples;Min_cycle;Max_cycle;Signal;HPM_P1;HPM_P2
2022/03/12 00:01:32;;;;;;;9.60;5.10;;;;;;;-6.06;51.70;98114.67;107971;1269;39190;-72
2022/03/12 00:04:06;;;;;;;10.40;4.80;;;;;;;-5.76;50.49;98109.32;108085;1270;41715;-73
2022/03/12 00:06:37;;;;;;;8.70;3.90;;;;;;;-5.45;50.33;98114.05;108061;1270;43123;-73
2022/03/12 00:09:08;;;;;;;8.40;4.00;;;;;;;-5.36;49.88;98115.96;108127;1270;44428;-74
2022/03/12 00:11:55;;;;;;;9.20;4.40;;;;;;;-5.22;49.45;98122.48;108030;1269;42318;-73
2022/03/12 00:14:30;;;;;;;7.70;3.70;;;;;;;-5.02;49.24;98115.95;108038;1270;42472;-73
2022/03/12 00:17:01;;;;;;;9.00;4.20;;;;;;;-4.97;49.08;98117.73;108079;1270;43999;-73
2022/03/12 00:19:32;;;;;;;8.20;2.70;;;;;;;-4.83;48.33;98115.02;108034;1270;33123;-73
2022/03/12 00:22:04;;;;;;;6.50;3.70;;;;;;;-4.60;47.22;98110.71;108135;1270;41941;-73
2022/03/12 00:24:38;;;;;;;10.10;4.90;;;;;;;-4.49;47.25;98111.05;108160;1270;34017;-73
2022/03/12 00:27:10;;;;;;;6.60;3.40;;;;;;;-4.51;47.06;98111.16;108027;1270;39581;-73
2022/03/12 00:29:43;;;;;;;8.50;4.20;;;;;;;-4.50;47.29;98112.75;108111;1270;41073;-73
2022/03/12 00:32:14;;;;;;;8.80;3.80;;;;;;;-4.54;47.09;98105.48;108120;1270;38902;-73
2022/03/12 00:34:45;;;;;;;6.30;3.00;;;;;;;-4.52;47.12;98106.84;108000;1270;45225;-73
2022/03/12 00:37:16;;;;;;;7.20;3.90;;;;;;;-4.47;46.98;98110.88;108085;1269;46686;-73
2022/03/12 00:39:48;;;;;;;8.00;3.90;;;;;;;-4.53;47.12;98108.16;107963;1270;41993;-73
2022/03/12 00:42:19;;;;;;;6.00;3.60;;;;;;;-4.57;47.17;98103.40;108101;1270;34535;-73
2022/03/12 00:44:49;;;;;;;9.70;4.40;;;;;;;-4.64;47.48;98103.05;108010;1270;42773;-73
2022/03/12 00:47:21;;;;;;;8.50;4.00;;;;;;;-4.76;47.67;98101.41;108098;1270;41774;-75
2022/03/12 00:49:52;;;;;;;9.20;4.30;;;;;;;-4.84;47.73;98101.29;108029;1270;46276;-72
2022/03/12 00:52:23;;;;;;;9.60;4.60;;;;;;;-4.87;47.64;98094.70;107941;1270;41091;-72
2022/03/12 00:54:54;;;;;;;5.70;3.20;;;;;;;-4.91;48.00;98091.29;108073;1270;45840;-73
2022/03/12 00:57:25;;;;;;;7.40;3.60;;;;;;;-4.95;48.10;98096.84;108059;1270;45089;-73
2022/03/12 00:59:56;;;;;;;7.50;3.80;;;;;;;-5.03;48.34;98089.11;108060;1270;43778;-73
2022/03/12 01:02:27;;;;;;;6.60;3.50;;;;;;;-5.11;48.78;98088.46;108101;1270;78870;-73
2022/03/12 01:04:58;;;;;;;7.40;3.20;;;;;;;-5.15;48.81;98087.28;107920;1270;49400;-73
2022/03/12 01:07:31;;;;;;;5.40;3.10;;;;;;;-5.21;48.98;98085.65;107988;1270;31612;-73
2022/03/12 01:10:02;;;;;;;7.10;3.80;;;;;;;-5.28;49.30;98085.46;108122;1270;72470;-73
2022/03/12 01:12:33;;;;;;;9.50;4.00;;;;;;;-5.52;50.31;98088.31;108106;1270;33694;-73
2022/03/12 01:15:06;;;;;;;11.80;4.40;;;;;;;-5.71;50.63;98092.27;108154;1270;40802;-73
2022/03/12 01:17:37;;;;;;;7.30;3.70;;;;;;;-5.83;50.55;98089.61;108039;1270;41839;-73
2022/03/12 01:20:10;;;;;;;8.50;3.40;;;;;;;-5.85;50.72;98088.26;108089;1270;56111;-73
2022/03/12 01:22:41;;;;;;;6.20;3.50;;;;;;;-5.97;51.41;98089.90;108119;1270;43775;-73
2022/03/12 01:25:12;;;;;;;6.70;3.50;;;;;;;-6.03;51.18;98090.95;108004;1270;39289;-73
2022/03/12 01:27:43;;;;;;;8.90;3.60;;;;;;;-5.95;51.24;98088.64;107918;1270;41008;-74
2022/03/12 01:30:15;;;;;;;6.50;2.90;;;;;;;-6.01;51.51;98090.45;107968;1270;55771;-73
2022/03/12 01:32:45;;;;;;;7.30;3.30;;;;;;;-5.88;50.97;98090.80;108122;1270;42717;-73
2022/03/12 01:35:16;;;;;;;5.70;2.90;;;;;;;-5.83;51.24;98090.67;108021;1270;61922;-73
2022/03/12 01:37:47;;;;;;;7.20;3.20;;;;;;;-5.86;51.52;98090.63;108106;1270;30625;-73
2022/03/12 01:40:18;;;;;;;7.00;3.30;;;;;;;-6.01;51.32;98084.23;107936;1271;45609;-73
2022/03/12 01:42:50;;;;;;;9.80;4.60;;;;;;;-5.96;51.57;98084.44;108039;1270;42389;-72
2022/03/12 01:45:26;;;;;;;5.40;3.10;;;;;;;-6.21;51.81;98087.52;108067;1270;46711;-73
2022/03/12 01:48:00;;;;;;;7.60;3.50;;;;;;;-6.22;51.53;98082.52;108123;1270;39557;-73
2022/03/12 01:50:32;;;;;;;5.30;3.10;;;;;;;-6.17;52.05;98090.52;108111;1270;42640;-73
2022/03/12 01:53:07;;;;;;;6.40;3.40;;;;;;;-6.24;52.09;98094.35;108036;1270;41887;-73
2022/03/12 01:55:39;;;;;;;7.60;4.10;;;;;;;-6.30;52.45;98097.13;108083;1270;33545;-73
2022/03/12 01:58:11;;;;;;;7.00;3.30;;;;;;;-6.39;52.80;98090.21;107977;1270;39476;-74
2022/03/12 02:00:47;;;;;;;8.90;3.90;;;;;;;-6.44;52.96;98084.82;107998;1270;34298;-73
2022/03/12 02:03:28;;;;;;;6.80;3.10;;;;;;;-6.49;52.91;98085.91;108043;1270;54962;-73
2022/03/12 02:06:00;;;;;;;5.30;2.90;;;;;;;-6.46;53.04;98079.12;107964;1270;46252;-74
2022/03/12 02:08:31;;;;;;;5.50;2.90;;;;;;;-6.37;52.75;98081.63;107977;1270;29924;-73
2022/03/12 02:11:02;;;;;;;8.20;3.10;;;;;;;-6.41;53.14;98081.26;108137;1270;43007;-73
2022/03/12 02:13:35;;;;;;;5.70;3.10;;;;;;;-6.51;53.51;98077.36;108178;1269;44327;-73
2022/03/12 02:16:11;;;;;;;4.60;2.30;;;;;;;-6.60;53.66;98074.14;108172;1270;36668;-73
2022/03/12 02:18:49;;;;;;;6.10;3.00;;;;;;;-6.65;54.00;98067.19;108082;1268;43179;-73
2022/03/12 02:21:38;;;;;;;5.30;3.20;;;;;;;-6.74;54.62;98064.94;108110;1270;31335;-72
2022/03/12 02:24:12;;;;;;;5.60;2.80;;;;;;;-6.80;54.36;98058.38;108049;1270;40949;-73
2022/03/12 02:26:45;;;;;;;4.90;2.80;;;;;;;-6.74;54.24;98056.02;108072;1270;59449;-73
2022/03/12 02:29:21;;;;;;;3.20;2.00;;;;;;;-6.71;54.16;98048.88;108031;1270;36151;-75
2022/03/12 02:31:56;;;;;;;5.40;2.50;;;;;;;-6.75;54.72;98049.70;108107;1270;44267;-73
2022/03/12 02:34:32;;;;;;;4.10;2.70;;;;;;;-6.91;55.92;98049.77;107964;1270;45974;-72
2022/03/12 02:37:04;;;;;;;6.00;2.30;;;;;;;-6.98;56.03;98050.49;108076;1268;52334;-72
2022/03/12 02:39:37;;;;;;;5.30;2.30;;;;;;;-6.73;55.49;98049.52;108042;1269;49741;-72
2022/03/12 02:42:09;;;;;;;5.40;2.20;;;;;;;-6.46;54.70;98050.56;108159;1270;44127;-72
2022/03/12 02:44:40;;;;;;;3.70;2.20;;;;;;;-6.36;54.31;98047.62;108001;1271;30181;-73
2022/03/12 02:47:15;;;;;;;6.50;3.00;;;;;;;-6.43;54.57;98053.28;108005;1268;45916;-73
2022/03/12 02:49:50;;;;;;;5.20;2.80;;;;;;;-6.64;54.94;98050.98;107963;1270;58075;-72
2022/03/12 02:52:22;;;;;;;8.50;3.40;;;;;;;-6.76;55.15;98048.59;108132;1269;42856;-72
2022/03/12 02:54:55;;;;;;;8.10;3.00;;;;;;;-6.85;55.73;98047.17;108091;1270;30142;-72
2022/03/12 02:57:28;;;;;;;3.80;2.50;;;;;;;-6.87;56.15;98049.21;108028;1270;32997;-72
2022/03/12 03:00:04;;;;;;;5.20;2.00;;;;;;;-6.83;55.83;98042.18;108029;1270;34929;-72
2022/03/12 03:02:40;;;;;;;4.80;1.70;;;;;;;-6.60;55.15;98042.05;108067;1270;46874;-73
2022/03/12 03:05:23;;;;;;;5.20;2.60;;;;;;;-6.38;55.10;98041.73;107982;1270;49685;-73
2022/03/12 03:07:56;;;;;;;4.70;2.50;;;;;;;-6.39;54.86;98041.36;107968;1270;33391;-72
2022/03/12 03:10:34;;;;;;;7.30;3.50;;;;;;;-6.37;54.72;98041.84;108036;1270;46788;-73
2022/03/12 03:13:36;;;;;;;9.60;4.10;;;;;;;-6.29;54.24;98036.88;108085;1270;36180;-72
2022/03/12 03:16:11;;;;;;;7.40;3.30;;;;;;;-6.22;53.77;98033.81;108072;1270;40568;-73
2022/03/12 03:18:50;;;;;;;10.40;5.40;;;;;;;-6.16;53.56;98035.67;108002;1270;43167;-73
2022/03/12 03:21:23;;;;;;;8.80;4.50;;;;;;;-6.12;53.37;98030.49;107987;1270;43345;-73
2022/03/12 03:23:54;;;;;;;9.10;4.40;;;;;;;-6.12;53.29;98031.89;108064;1270;37710;-72
2022/03/12 03:26:50;;;;;;;13.00;5.70;;;;;;;-6.16;53.37;98034.80;107953;1270;40553;-72
2022/03/12 03:29:21;;;;;;;20.50;10.40;;;;;;;-6.39;53.63;98041.36;108016;1270;37461;-73
2022/03/12 03:31:52;;;;;;;19.90;10.90;;;;;;;-6.58;53.70;98043.94;108001;1270;44312;-72
2022/03/12 03:34:25;;;;;;;22.20;10.00;;;;;;;-6.70;53.59;98050.83;108027;1267;32963;-73
2022/03/12 03:36:56;;;;;;;21.50;11.20;;;;;;;-6.76;53.96;98054.80;108101;1270;42710;-73
2022/03/12 03:39:27;;;;;;;23.60;11.20;;;;;;;-6.84;54.23;98053.61;107941;1270;31790;-73
2022/03/12 03:41:58;;;;;;;28.40;12.80;;;;;;;-6.92;54.11;98053.93;108012;1270;63861;-73
2022/03/12 03:44:31;;;;;;;22.70;12.50;;;;;;;-6.97;54.57;98054.20;108062;1270;54022;-73
2022/03/12 03:47:03;;;;;;;24.20;10.80;;;;;;;-7.02;54.35;98051.89;108128;1270;35749;-72
2022/03/12 03:49:34;;;;;;;22.60;11.00;;;;;;;-7.07;54.65;98052.52;108103;1270;41521;-73
2022/03/12 03:52:07;;;;;;;21.30;9.50;;;;;;;-7.14;54.82;98051.61;108061;1270;67890;-72
2022/03/12 03:54:41;;;;;;;20.10;10.20;;;;;;;-7.20;55.03;98051.56;108119;1268;42644;-72
2022/03/12 03:57:13;;;;;;;17.30;7.00;;;;;;;-7.26;55.19;98054.16;108119;1270;41339;-73
2022/03/12 03:59:45;;;;;;;19.10;9.70;;;;;;;-7.31;55.37;98051.10;108007;1270;28079;-72
2022/03/12 04:02:16;;;;;;;15.80;6.70;;;;;;;-7.36;55.43;98047.95;108060;1270;43258;-74
2022/03/12 04:04:48;;;;;;;17.40;8.30;;;;;;;-7.40;55.62;98049.83;108115;1269;31935;-74
2022/03/12 04:07:19;;;;;;;15.70;7.40;;;;;;;-7.42;55.49;98046.42;108099;1270;42207;-72
2022/03/12 04:09:50;;;;;;;18.90;8.90;;;;;;;-7.42;55.70;98041.55;108102;1270;39879;-73
2022/03/12 04:12:23;;;;;;;19.40;9.60;;;;;;;-7.41;55.75;98041.03;108077;1270;45102;-74
2022/03/12 04:14:58;;;;;;;20.10;9.60;;;;;;;-7.43;55.96;98040.11;108052;1270;48498;-72
2022/03/12 04:17:29;;;;;;;21.00;9.20;;;;;;;-7.44;55.82;98043.83;108089;1267;57974;-72
2022/03/12 04:20:00;;;;;;;20.00;9.10;;;;;;;-7.47;55.79;98044.03;108008;1270;41612;-73
2022/03/12 04:22:31;;;;;;;16.80;10.10;;;;;;;-7.50;56.18;98047.71;107953;1271;30999;-73
2022/03/12 04:25:02;;;;;;;18.50;10.50;;;;;;;-7.54;56.42;98047.38;108046;1270;29049;-73
2022/03/12 04:27:34;;;;;;;24.20;11.30;;;;;;;-7.55;56.56;98044.42;108063;1270;49032;-73
2022/03/12 04:30:07;;;;;;;20.40;9.60;;;;;;;-7.57;56.64;98041.71;108089;1270;62742;-73
2022/03/12 04:32:39;;;;;;;19.30;10.40;;;;;;;-7.61;56.41;98043.00;108173;1270;41764;-73
2022/03/12 04:35:11;;;;;;;24.40;10.60;;;;;;;-7.64;56.48;98043.26;108088;1270;46020;-73
2022/03/12 04:37:42;;;;;;;21.00;11.50;;;;;;;-7.65;56.64;98048.52;108135;1270;28168;-73
2022/03/12 04:40:20;;;;;;;19.10;10.30;;;;;;;-7.67;56.76;98046.11;108027;1270;46174;-73
2022/03/12 04:42:51;;;;;;;21.50;10.20;;;;;;;-7.72;56.87;98047.39;108010;1270;42582;-73
2022/03/12 04:45:25;;;;;;;20.80;10.80;;;;;;;-7.74;56.83;98055.46;108067;1270;42450;-73
2022/03/12 04:47:57;;;;;;;25.00;11.20;;;;;;;-7.74;56.75;98054.27;108107;1270;32281;-73
2022/03/12 04:50:28;;;;;;;21.90;9.70;;;;;;;-7.73;56.85;98054.04;108098;1270;43769;-73
2022/03/12 04:53:02;;;;;;;19.10;7.30;;;;;;;-7.73;56.82;98053.80;107994;1270;42599;-72
2022/03/12 04:55:36;;;;;;;25.50;11.50;;;;;;;-7.72;56.69;98052.53;108105;1270;43198;-73
2022/03/12 04:58:09;;;;;;;16.60;7.70;;;;;;;-7.68;56.93;98048.48;108144;1270;45054;-72
2022/03/12 05:00:41;;;;;;;19.80;9.50;;;;;;;-7.67;56.85;98052.11;108099;1270;33928;-73
2022/03/12 05:03:15;;;;;;;19.50;8.40;;;;;;;-7.67;56.75;98052.80;108090;1270;39436;-73
2022/03/12 05:05:49;;;;;;;15.10;4.70;;;;;;;-7.64;56.85;98051.31;108129;1270;41753;-74
2022/03/12 05:08:23;;;;;;;17.10;5.80;;;;;;;-7.60;56.83;98052.76;108046;1270;33494;-72
2022/03/12 05:10:56;;;;;;;15.50;7.70;;;;;;;-7.54;56.60;98047.09;108069;1270;61998;-75
2022/03/12 05:13:27;;;;;;;15.10;5.70;;;;;;;-7.26;56.83;98049.99;107997;1270;39960;-72
2022/03/12 05:16:00;;;;;;;14.60;7.40;;;;;;;-6.88;56.08;98045.34;108042;1270;67380;-72
2022/03/12 05:18:33;;;;;;;20.20;9.50;;;;;;;-6.48;55.30;98041.85;108067;1270;45239;-72
2022/03/12 05:21:05;;;;;;;17.90;9.90;;;;;;;-6.13;54.84;98034.93;108133;1270;39979;-72
2022/03/12 05:23:36;;;;;;;18.20;9.70;;;;;;;-5.76;54.04;98033.43;108027;1269;35589;-72
2022/03/12 05:26:06;;;;;;;22.70;10.70;;;;;;;-5.43;53.23;98034.43;108060;1270;44918;-72
2022/03/12 05:28:41;;;;;;;17.80;8.70;;;;;;;-5.16;52.87;98037.95;108036;1270;41254;-72
2022/03/12 05:31:13;;;;;;;19.00;9.90;;;;;;;-4.82;52.16;98032.09;108083;1269;43789;-73
2022/03/12 05:33:44;;;;;;;21.20;10.80;;;;;;;-4.42;51.67;98030.04;108127;1269;32976;-73
2022/03/12 05:36:15;;;;;;;18.80;10.60;;;;;;;-4.00;51.33;98027.42;108147;1270;44146;-72
2022/03/12 05:38:46;;;;;;;13.90;7.20;;;;;;;-3.62;49.94;98032.75;108097;1269;44989;-73
2022/03/12 05:41:17;;;;;;;13.90;7.00;;;;;;;-3.19;48.61;98032.23;108028;1270;31597;-72
2022/03/12 05:43:57;;;;;;;15.60;8.00;;;;;;;-2.87;47.43;98030.86;108072;1270;40957;-73
2022/03/12 05:46:28;;;;;;;16.20;9.00;;;;;;;-2.60;46.76;98030.75;108074;1270;43536;-72
2022/03/12 05:48:59;;;;;;;17.10;10.40;;;;;;;-2.48;45.83;98035.45;108067;1268;41847;-73
2022/03/12 05:51:30;;;;;;;16.90;10.30;;;;;;;-2.26;46.09;98035.75;107892;1270;51769;-72
2022/03/12 05:54:02;;;;;;;18.40;11.20;;;;;;;-1.89;45.41;98030.49;107987;1270;42380;-73
2022/03/12 05:56:33;;;;;;;19.10;10.70;;;;;;;-1.69;44.76;98035.13;108031;1270;45040;-73
2022/03/12 05:59:03;;;;;;;20.10;11.00;;;;;;;-1.52;44.29;98031.38;108041;1270;41780;-73
2022/03/12 06:01:35;;;;;;;18.60;10.40;;;;;;;-1.34;43.89;98035.45;108057;1270;39042;-73
2022/03/12 06:04:08;;;;;;;17.60;11.10;;;;;;;-1.07;43.51;98028.76;108154;1270;27521;-73
2022/03/12 06:06:44;;;;;;;20.00;10.90;;;;;;;-0.86;42.60;98026.89;108072;1270;41581;-74
2022/03/12 06:09:15;;;;;;;15.70;9.60;;;;;;;-0.65;42.45;98025.77;108073;1270;37360;-73
2022/03/12 06:11:46;;;;;;;18.40;10.60;;;;;;;-0.33;42.32;98021.55;108074;1270;38489;-73
2022/03/12 06:14:18;;;;;;;17.30;9.90;;;;;;;-0.01;41.51;98023.28;107956;1270;31129;-73
2022/03/12 06:16:49;;;;;;;22.00;11.30;;;;;;;0.31;40.95;98015.11;108025;1270;58541;-73
2022/03/12 06:19:21;;;;;;;18.90;11.40;;;;;;;0.80;40.70;98011.54;108098;1270;43908;-73
2022/03/12 06:21:55;;;;;;;16.70;8.90;;;;;;;0.94;40.42;98011.91;108144;1269;42134;-73
2022/03/12 06:24:26;;;;;;;16.80;9.00;;;;;;;1.37;40.18;98005.20;107982;1270;38311;-73
2022/03/12 06:26:58;;;;;;;15.20;9.50;;;;;;;1.66;38.84;98000.46;108047;1270;28798;-73
2022/03/12 06:29:28;;;;;;;17.00;10.30;;;;;;;1.88;38.74;97999.81;107946;1270;29776;-73
2022/03/12 06:31:59;;;;;;;14.90;10.10;;;;;;;2.00;38.11;98005.46;108035;1270;37575;-73
2022/03/12 06:34:31;;;;;;;17.30;11.70;;;;;;;2.00;37.73;98009.05;107923;1271;34358;-73
2022/03/12 06:37:02;;;;;;;16.70;10.80;;;;;;;2.19;37.79;98011.92;108031;1270;34306;-73
2022/03/12 06:39:33;;;;;;;17.60;11.70;;;;;;;2.34;36.69;98010.17;107995;1270;35196;-73
2022/03/12 06:42:06;;;;;;;15.60;10.00;;;;;;;2.46;36.96;98009.52;108066;1270;41135;-73
2022/03/12 06:44:37;;;;;;;17.40;10.90;;;;;;;2.64;36.53;98013.86;108023;1270;42939;-73
2022/03/12 06:47:10;;;;;;;17.60;11.20;;;;;;;2.75;36.22;98010.66;108092;1270;39584;-73
2022/03/12 06:49:43;;;;;;;17.50;11.30;;;;;;;2.92;35.97;98028.13;108065;1270;46354;-74
2022/03/12 06:52:15;;;;;;;17.30;11.70;;;;;;;3.14;36.14;98028.20;108025;1270;32123;-74
2022/03/12 06:54:47;;;;;;;18.90;11.80;;;;;;;3.44;35.79;98029.29;108029;1270;44367;-73
2022/03/12 06:57:18;;;;;;;15.00;10.70;;;;;;;3.64;35.48;98027.16;108001;1270;39465;-73
2022/03/12 06:59:49;;;;;;;15.60;10.60;;;;;;;3.88;35.25;98035.70;108038;1270;38344;-73
2022/03/12 07:02:21;;;;;;;15.50;11.40;;;;;;;4.20;34.85;98035.88;108145;1269;32960;-73
2022/03/12 07:04:52;;;;;;;17.40;12.60;;;;;;;4.44;34.74;98032.48;108032;1270;45225;-73
2022/03/12 07:07:25;;;;;;;17.30;11.00;;;;;;;4.92;34.38;98031.23;108020;1270;45183;-73
2022/03/12 07:09:56;;;;;;;16.20;11.00;;;;;;;5.13;34.18;98033.48;108030;1270;36945;-73
2022/03/12 07:12:28;;;;;;;15.40;11.00;;;;;;;5.40;33.86;98032.59;108022;1270;49987;-73
2022/03/12 07:14:59;;;;;;;14.60;11.10;;;;;;;5.75;33.04;98035.32;108082;1270;40860;-74
2022/03/12 07:17:31;;;;;;;14.70;10.10;;;;;;;5.90;32.55;98038.67;108109;1270;41983;-74
2022/03/12 07:20:04;;;;;;;14.10;10.40;;;;;;;6.10;32.55;98041.10;108039;1270;39611;-73
2022/03/12 07:22:36;;;;;;;14.70;10.50;;;;;;;6.22;32.02;98038.91;108145;1270;34734;-73
2022/03/12 07:25:09;;;;;;;15.70;10.70;;;;;;;6.21;31.69;98037.54;108114;1268;79162;-74
2022/03/12 07:27:41;;;;;;;13.60;10.30;;;;;;;6.06;31.60;98033.64;108197;1270;45080;-74
2022/03/12 07:30:16;;;;;;;15.50;11.10;;;;;;;6.05;31.65;98033.92;108086;1270;32384;-74
2022/03/12 07:32:48;;;;;;;15.80;11.20;;;;;;;6.58;31.45;98033.23;108035;1270;63029;-74
2022/03/12 07:35:21;;;;;;;12.90;10.50;;;;;;;6.84;31.16;98035.81;108081;1270;37973;-74
2022/03/12 07:37:53;;;;;;;13.90;10.60;;;;;;;7.17;30.89;98035.41;108049;1270;42594;-74
2022/03/12 07:40:25;;;;;;;14.00;11.30;;;;;;;7.10;29.94;98028.40;108068;1270;42421;-74
2022/03/12 07:42:56;;;;;;;15.10;11.90;;;;;;;6.71;30.56;98033.60;108029;1270;43030;-73
2022/03/12 07:45:28;;;;;;;14.70;11.00;;;;;;;6.98;30.36;98033.19;108081;1270;40767;-73
2022/03/12 07:47:59;;;;;;;13.20;10.90;;;;;;;7.61;30.56;98037.77;108117;1270;33886;-74
2022/03/12 07:50:30;;;;;;;13.50;10.90;;;;;;;8.14;30.67;98036.84;107954;1271;35759;-74
2022/03/12 07:53:01;;;;;;;12.70;10.30;;;;;;;9.08;30.28;98036.45;108123;1270;29548;-73
2022/03/12 07:55:33;;;;;;;12.20;10.30;;;;;;;9.54;29.11;98038.95;108095;1270;38360;-74
2022/03/12 07:58:04;;;;;;;11.30;9.80;;;;;;;9.92;29.29;98038.05;108052;1270;30675;-73
2022/03/12 08:00:36;;;;;;;12.70;9.70;;;;;;;10.50;28.87;98032.77;108139;1270;30125;-73
2022/03/12 08:03:08;;;;;;;13.80;11.10;;;;;;;10.56;27.10;98028.14;108080;1270;38171;-73
2022/03/12 08:05:40;;;;;;;12.80;11.10;;;;;;;9.59;27.20;98026.02;108175;1270;26346;-73
2022/03/12 08:08:12;;;;;;;15.40;13.40;;;;;;;9.59;27.93;98027.98;108090;1270;37079;-74
2022/03/12 08:13:32;;;;;;;22.80;18.40;;;;;;;10.19;27.57;98019.14;108114;1270;32093;-73
2022/03/12 08:16:03;;;;;;;19.80;16.30;;;;;;;10.56;27.12;98012.08;108017;1270;45618;-73
2022/03/12 08:18:35;;;;;;;22.60;16.90;;;;;;;10.95;27.04;98010.65;108135;1270;55659;-73
2022/03/12 08:21:06;;;;;;;38.20;27.00;;;;;;;11.49;27.21;98010.44;108037;1270;39411;-73
2022/03/12 08:23:38;;;;;;;38.50;29.30;;;;;;;11.69;26.06;98018.71;108105;1270;47030;-72
2022/03/12 08:26:09;;;;;;;21.80;16.80;;;;;;;11.66;26.28;98018.52;108118;1270;34065;-72
2022/03/12 08:28:41;;;;;;;23.80;18.90;;;;;;;12.09;26.37;98012.69;108122;1270;33874;-73
2022/03/12 08:31:13;;;;;;;20.70;17.60;;;;;;;12.19;25.80;98010.75;108126;1269;28315;-72
2022/03/12 08:33:45;;;;;;;21.40;18.60;;;;;;;12.14;25.20;98005.39;108085;1270;29478;-72
2022/03/12 08:36:17;;;;;;;21.60;15.90;;;;;;;12.11;25.07;98008.72;107972;1271;28136;-72
2022/03/12 08:38:49;;;;;;;12.70;9.40;;;;;;;11.91;24.07;98010.13;108097;1270;36050;-72
2022/03/12 08:41:22;;;;;;;23.10;14.30;;;;;;;11.52;24.40;98008.40;108105;1270;35777;-73
2022/03/12 08:43:54;;;;;;;55.30;36.50;;;;;;;11.64;24.66;98004.31;108068;1270;36739;-72
2022/03/12 08:46:26;;;;;;;27.30;18.10;;;;;;;11.77;24.63;98002.86;108195;1270;35257;-72
2022/03/12 08:48:57;;;;;;;23.90;16.40;;;;;;;11.85;25.02;98000.58;107984;1270;34640;-72
2022/03/12 08:51:29;;;;;;;17.30;10.30;;;;;;;12.14;24.99;98004.38;108077;1270;26125;-71
2022/03/12 08:54:02;;;;;;;26.40;14.80;;;;;;;12.09;24.69;98004.71;108110;1270;29174;-72
2022/03/12 08:56:34;;;;;;;35.70;21.20;;;;;;;12.08;24.57;98001.03;108091;1270;38190;-72
2022/03/12 08:59:07;;;;;;;17.30;10.50;;;;;;;11.24;23.57;98004.39;108142;1270;30334;-72
2022/03/12 09:01:41;;;;;;;29.40;19.50;;;;;;;10.34;24.45;98004.48;108024;1271;38800;-72
2022/03/12 09:04:13;;;;;;;18.10;11.80;;;;;;;9.57;24.04;98010.40;108115;1270;35640;-72
2022/03/12 09:06:44;;;;;;;13.80;9.00;;;;;;;8.59;24.39;98014.89;108014;1271;34694;-72
2022/03/12 09:09:17;;;;;;;17.60;10.20;;;;;;;7.90;24.74;98025.05;108029;1270;30524;-72
2022/03/12 09:11:50;;;;;;;14.70;8.30;;;;;;;7.27;25.30;98025.79;108093;1270;31040;-72
2022/03/12 09:14:22;;;;;;;10.70;6.60;;;;;;;7.01;25.93;98021.55;108061;1270;28149;-72
2022/03/12 09:16:54;;;;;;;13.70;7.80;;;;;;;6.75;26.26;98021.02;108114;1270;28151;-72
2022/03/12 09:19:27;;;;;;;13.20;7.90;;;;;;;6.52;27.07;98020.65;108103;1270;29829;-72
2022/03/12 09:22:02;;;;;;;11.50;6.70;;;;;;;6.44;26.97;98016.09;108111;1270;28252;-71
2022/03/12 09:24:38;;;;;;;14.30;5.90;;;;;;;6.15;26.85;98016.48;108033;1270;27330;-72
2022/03/12 09:27:10;;;;;;;9.80;5.50;;;;;;;5.99;27.22;98017.77;108039;1270;40948;-71
2022/03/12 09:29:42;;;;;;;9.50;5.30;;;;;;;6.06;27.11;98015.26;108139;1270;28424;-72
2022/03/12 09:32:14;;;;;;;7.70;4.60;;;;;;;6.21;27.45;98009.90;108125;1270;29860;-71
2022/03/12 09:34:46;;;;;;;9.50;5.40;;;;;;;6.22;27.07;98010.87;108033;1270;35955;-72
2022/03/12 09:37:18;;;;;;;8.50;4.60;;;;;;;5.92;26.37;98006.02;108090;1271;31387;-71
2022/03/12 09:39:49;;;;;;;9.10;4.80;;;;;;;5.61;26.15;98000.95;108134;1270;27136;-72
2022/03/12 09:42:23;;;;;;;8.90;4.40;;;;;;;5.46;26.23;98000.20;108061;1270;37452;-72
2022/03/12 09:44:56;;;;;;;6.60;3.70;;;;;;;5.63;26.84;97994.14;108034;1271;27113;-72
2022/03/12 09:47:27;;;;;;;6.90;3.30;;;;;;;5.63;25.77;97988.35;108088;1270;41828;-71
2022/03/12 09:49:58;;;;;;;5.50;3.10;;;;;;;5.63;25.91;97987.87;108114;1270;33698;-72
2022/03/12 09:52:30;;;;;;;4.20;2.10;;;;;;;5.68;24.72;97984.48;108100;1270;29722;-72
2022/03/12 09:55:02;;;;;;;2.80;1.80;;;;;;;5.54;23.44;97983.88;108142;1270;29608;-72
2022/03/12 09:57:34;;;;;;;5.30;2.70;;;;;;;5.45;23.80;97977.02;108011;1269;34942;-72
2022/03/12 10:00:08;;;;;;;5.80;3.30;;;;;;;5.59;24.37;97978.27;108048;1270;31898;-72
2022/03/12 10:02:39;;;;;;;7.80;3.10;;;;;;;5.90;24.63;97975.80;108128;1270;27657;-72
2022/03/12 10:05:13;;;;;;;4.20;2.60;;;;;;;5.95;23.79;97971.52;108129;1271;31174;-73
2022/03/12 10:07:45;;;;;;;6.60;4.20;;;;;;;5.94;23.26;97965.78;108118;1270;35466;-72
2022/03/12 10:10:22;;;;;;;7.90;4.00;;;;;;;5.90;23.53;97962.99;108088;1270;35119;-72
2022/03/12 10:12:53;;;;;;;10.00;6.00;;;;;;;6.14;24.36;97960.79;108125;1271;34830;-72
2022/03/12 10:15:25;;;;;;;10.90;5.50;;;;;;;6.09;24.52;97963.92;108137;1271;29282;-72
2022/03/12 10:17:58;;;;;;;8.10;4.50;;;;;;;6.32;25.53;97962.60;108114;1268;36075;-72
2022/03/12 10:20:31;;;;;;;8.10;4.70;;;;;;;6.51;24.72;97958.40;108069;1270;31199;-72
2022/03/12 10:23:04;;;;;;;8.10;4.70;;;;;;;6.21;24.35;97955.29;108105;1270;38996;-72
2022/03/12 10:25:36;;;;;;;9.00;4.90;;;;;;;6.10;24.76;97956.53;108178;1270;29326;-72
2022/03/12 10:28:10;;;;;;;8.50;4.90;;;;;;;6.33;25.99;97950.89;108116;1270;35256;-72
2022/03/12 10:30:43;;;;;;;8.40;5.00;;;;;;;6.54;25.83;97947.42;108038;1270;35016;-73
2022/03/12 10:33:24;;;;;;;9.00;4.80;;;;;;;6.34;24.21;97945.09;108131;1271;32755;-73
2022/03/12 10:36:08;;;;;;;8.50;5.20;;;;;;;5.86;24.38;97938.42;108148;1271;37186;-73
2022/03/12 10:38:43;;;;;;;12.10;5.80;;;;;;;5.75;25.41;97938.52;108169;1270;37875;-72
2022/03/12 10:41:16;;;;;;;7.90;4.80;;;;;;;6.09;25.57;97934.50;108113;1271;31071;-73
2022/03/12 10:43:50;;;;;;;9.60;4.90;;;;;;;6.36;25.90;97933.34;108038;1270;34627;-73
2022/03/12 10:46:24;;;;;;;10.20;5.50;;;;;;;6.64;26.78;97930.41;108068;1270;41003;-72
2022/03/12 10:48:58;;;;;;;10.30;5.70;;;;;;;6.92;26.79;97926.23;108120;1271;36025;-73
2022/03/12 10:51:33;;;;;;;10.90;5.60;;;;;;;7.10;26.65;97922.05;108048;1271;40126;-72
2022/03/12 10:54:09;;;;;;;9.60;5.50;;;;;;;7.18;26.62;97916.77;108115;1271;34124;-73
2022/03/12 10:56:51;;;;;;;9.70;5.70;;;;;;;7.18;26.53;97914.27;108162;1270;43139;-73
2022/03/12 10:59:25;;;;;;;12.30;6.40;;;;;;;7.29;26.98;97910.60;108017;1271;37057;-73
2022/03/12 11:01:59;;;;;;;12.20;6.60;;;;;;;7.20;26.84;97910.00;108077;1270;31969;-73
2022/03/12 11:04:34;;;;;;;10.10;6.50;;;;;;;7.25;26.80;97906.80;107995;1268;34975;-73
2022/03/12 11:07:25;;;;;;;9.80;5.90;;;;;;;7.26;27.27;97905.04;108066;1270;39757;-73
2022/03/12 11:09:55;;;;;;;;;;;;;;;7.32;26.69;97903.98;107825;1271;373822;-73
2022/03/12 11:12:30;;;;;;;14.00;6.40;;;;;;;7.02;26.44;97902.00;108099;1271;37537;-73
2022/03/12 11:15:08;;;;;;;10.70;6.00;;;;;;;7.05;27.46;97901.19;108049;1271;40656;-73
2022/03/12 11:17:50;;;;;;;12.20;6.50;;;;;;;7.22;27.39;97899.14;108066;1270;40400;-73
2022/03/12 11:20:35;;;;;;;13.50;6.50;;;;;;;7.11;26.82;97896.34;108090;1271;30558;-73
2022/03/12 11:23:12;;;;;;;17.50;8.20;;;;;;;7.01;26.96;97893.42;108214;1271;39456;-73
2022/03/12 11:25:57;;;;;;;16.80;8.50;;;;;;;6.91;27.21;97892.41;107976;1271;44979;-73
2022/03/12 11:28:31;;;;;;;17.90;10.10;;;;;;;6.92;27.99;97889.55;108090;1271;30199;-73
2022/03/12 11:31:10;;;;;;;13.00;7.40;;;;;;;7.10;28.28;97890.93;108163;1271;37221;-73
2022/03/12 11:33:42;;;;;;;12.80;7.20;;;;;;;7.16;27.98;97885.52;107960;1271;38656;-74
2022/03/12 11:36:15;;;;;;;12.40;8.10;;;;;;;7.21;28.52;97886.20;107967;1271;58188;-74
2022/03/12 11:38:53;;;;;;;15.70;7.80;;;;;;;7.36;28.03;97882.73;107957;1271;38845;-73
2022/03/12 11:41:27;;;;;;;16.20;9.30;;;;;;;7.09;26.96;97877.08;108031;1271;33690;-73
2022/03/12 11:44:02;;;;;;;13.40;8.10;;;;;;;6.63;26.83;97877.29;108100;1271;32486;-72
2022/03/12 11:46:35;;;;;;;21.00;11.50;;;;;;;6.62;27.72;97870.00;108018;1270;39526;-73
2022/03/12 11:49:07;;;;;;;16.10;9.20;;;;;;;6.82;28.72;97861.51;108112;1270;28654;-74
2022/03/12 11:51:39;;;;;;;15.30;9.20;;;;;;;7.12;28.75;97863.65;108124;1271;36648;-73